createdAt,value
2018-01-12T00:00:01.372Z,73.83
2018-01-12T00:02:29.525Z,79.13
2018-01-12T00:04:57.652Z,83.87
2018-01-12T00:07:25.777Z,84.20
2018-01-12T00:09:53.899Z,86.30
2018-01-12T00:12:22.052Z,82.93
2018-01-12T00:14:50.193Z,82.13
2018-01-12T00:17:18.339Z,87.63
2018-01-12T00:19:46.452Z,75.93
2018-01-12T00:22:14.605Z,68.77
2018-01-12T00:24:43.494Z,62.00
2018-01-12T00:27:12.435Z,69.73
2018-01-12T00:29:40.497Z,71.90
2018-01-12T00:32:08.618Z,63.00
2018-01-12T00:34:36.766Z,58.03
2018-01-12T00:37:05.163Z,55.10
2018-01-12T00:39:33.288Z,61.20
2018-01-12T00:42:01.834Z,55.20
2018-01-12T00:44:30.026Z,51.50
2018-01-12T00:46:58.895Z,55.13
2018-01-12T00:49:27.027Z,60.70
2018-01-12T00:51:55.159Z,57.60
2018-01-12T00:54:24.085Z,50.70
2018-01-12T00:56:52.192Z,62.83
2018-01-12T00:59:20.343Z,56.47
2018-01-12T01:01:48.462Z,60.90
2018-01-12T01:04:17.359Z,63.40
2018-01-12T01:06:46.248Z,60.13
2018-01-12T01:09:15.152Z,66.23
2018-01-12T01:11:44.030Z,59.97
2018-01-12T01:14:12.924Z,71.80
2018-01-12T01:16:41.812Z,64.57
2018-01-12T01:19:10.715Z,62.63
2018-01-12T01:21:38.836Z,61.10
2018-01-12T01:24:07.063Z,62.10
2018-01-12T01:26:35.172Z,56.10
2018-01-12T01:29:03.605Z,60.17
2018-01-12T01:31:32.494Z,55.30
2018-01-12T01:34:01.402Z,59.30
2018-01-12T01:36:29.516Z,59.20
2018-01-12T01:38:57.637Z,61.03
2018-01-12T01:41:26.531Z,65.10
2018-01-12T01:43:55.416Z,64.07
2018-01-12T01:46:24.317Z,66.77
2018-01-12T01:48:53.220Z,59.47
2018-01-12T01:51:21.367Z,59.57
2018-01-12T01:53:50.246Z,62.97
2018-01-12T01:56:18.409Z,60.63
2018-01-12T01:58:46.520Z,66.60
2018-01-12T02:01:14.655Z,65.97
2018-01-12T02:03:42.769Z,58.07
2018-01-12T02:06:10.918Z,61.53
2018-01-12T02:08:39.020Z,60.63
2018-01-12T02:11:07.150Z,62.60
2018-01-12T02:13:35.270Z,64.77
2018-01-12T02:16:03.424Z,66.10
2018-01-12T02:18:32.292Z,62.60
2018-01-12T02:21:00.423Z,58.67
2018-01-12T02:23:28.534Z,57.63
2018-01-12T02:25:56.663Z,67.10
2018-01-12T02:28:24.799Z,64.80
2018-01-12T02:30:53.697Z,68.43
2018-01-12T02:33:22.584Z,68.40
2018-01-12T02:35:51.499Z,67.63
2018-01-12T02:38:19.616Z,62.20
2018-01-12T02:40:47.765Z,62.37
2018-01-12T02:43:15.885Z,64.23
2018-01-12T02:45:44.034Z,64.83
2018-01-12T02:48:12.162Z,66.07
2018-01-12T02:50:40.290Z,69.60
2018-01-12T02:53:08.424Z,74.83
2018-01-12T02:55:37.321Z,70.80
2018-01-12T02:58:05.467Z,76.27
2018-01-12T03:00:33.578Z,69.70
2018-01-12T03:03:01.732Z,80.73
2018-01-12T03:05:29.856Z,72.37
2018-01-12T03:07:57.984Z,79.87
2018-01-12T03:10:26.107Z,80.33
2018-01-12T03:12:54.243Z,67.03
2018-01-12T03:15:22.355Z,78.70
2018-01-12T03:17:51.261Z,67.30
2018-01-12T03:20:20.134Z,67.37
2018-01-12T03:22:48.273Z,92.67
2018-01-12T03:25:16.380Z,85.23
2018-01-12T03:27:44.516Z,87.40
2018-01-12T03:30:12.639Z,83.80
2018-01-12T03:32:41.543Z,82.43
2018-01-12T03:35:09.695Z,69.20
2018-01-12T03:37:38.604Z,79.80
2018-01-12T03:40:07.496Z,79.87
2018-01-12T03:42:36.392Z,76.23
2018-01-12T03:45:05.384Z,68.00
2018-01-12T03:47:34.286Z,78.63
2018-01-12T03:50:02.913Z,66.10
2018-01-12T03:52:31.173Z,64.07
2018-01-12T03:54:59.284Z,72.10
2018-01-12T03:57:27.411Z,80.63
2018-01-12T03:59:56.305Z,70.37
2018-01-12T04:02:24.437Z,81.00
2018-01-12T04:04:53.320Z,79.90
2018-01-12T04:07:22.241Z,82.50
2018-01-12T04:09:50.353Z,79.37
2018-01-12T04:12:18.521Z,80.87
2018-01-12T04:14:46.643Z,75.90
2018-01-12T04:17:15.535Z,75.40
2018-01-12T04:19:44.425Z,80.77
2018-01-12T04:22:13.329Z,82.07
2018-01-12T04:24:41.441Z,88.53
2018-01-12T04:27:10.360Z,85.30
2018-01-12T04:29:38.579Z,77.30
2018-01-12T04:32:06.685Z,74.40
2018-01-12T04:34:34.813Z,84.33
2018-01-12T04:37:03.211Z,74.87
2018-01-12T04:39:31.384Z,83.77
2018-01-12T04:41:59.495Z,85.87
2018-01-12T04:44:27.632Z,87.07
2018-01-12T04:46:55.739Z,93.77
2018-01-12T04:49:24.153Z,95.73
2018-01-12T04:51:52.335Z,83.50
2018-01-12T04:54:20.898Z,88.00
2018-01-12T04:56:49.797Z,88.17
2018-01-12T04:59:18.751Z,89.97
2018-01-12T05:01:46.876Z,77.90
2018-01-12T05:04:15.023Z,87.30
2018-01-12T05:06:43.146Z,88.00
2018-01-12T05:09:11.288Z,95.33
2018-01-12T05:11:40.172Z,90.40
2018-01-12T05:14:09.092Z,95.77
2018-01-12T05:16:37.834Z,89.93
2018-01-12T05:19:06.890Z,97.77
2018-01-12T05:21:35.021Z,94.57
2018-01-12T05:24:04.214Z,90.93
2018-01-12T05:26:33.098Z,86.93
2018-01-12T05:29:01.380Z,90.73
2018-01-12T05:31:29.783Z,107.10
2018-01-12T05:33:57.934Z,97.70
2018-01-12T05:36:26.822Z,102.13
2018-01-12T05:38:54.965Z,106.20
2018-01-12T05:41:23.084Z,100.73
2018-01-12T05:43:52.025Z,113.93
2018-01-12T05:46:20.144Z,124.63
2018-01-12T05:48:49.059Z,107.07
2018-01-12T05:51:17.194Z,108.13
2018-01-12T05:53:46.090Z,106.40
2018-01-12T05:56:14.219Z,126.33
2018-01-12T05:58:42.348Z,114.57
2018-01-12T06:01:23.074Z,97.47
2018-01-12T06:04:02.916Z,103.73
2018-01-12T06:06:31.065Z,118.63
2018-01-12T06:08:59.181Z,103.57
2018-01-12T06:11:27.346Z,105.13
2018-01-12T06:13:55.475Z,91.87
2018-01-12T06:16:23.623Z,105.03
2018-01-12T06:18:52.513Z,103.60
2018-01-12T06:21:21.417Z,86.17
2018-01-12T06:23:50.289Z,98.97
2018-01-12T06:26:18.416Z,85.10
2018-01-12T06:28:46.526Z,95.73
2018-01-12T06:31:14.659Z,89.87
2018-01-12T06:33:42.787Z,103.50
2018-01-12T06:36:10.906Z,82.77
2018-01-12T06:38:39.772Z,78.13
2018-01-12T06:41:07.910Z,75.73
2018-01-12T06:43:36.018Z,81.13
2018-01-12T06:46:04.303Z,75.67
2018-01-12T06:48:32.466Z,82.20
2018-01-12T06:51:00.635Z,79.20
2018-01-12T06:53:28.769Z,91.37
2018-01-12T06:55:56.995Z,84.57
2018-01-12T06:58:25.147Z,86.13
2018-01-12T07:00:53.326Z,70.43
2018-01-12T07:03:23.351Z,83.33
2018-01-12T07:05:51.630Z,94.80
2018-01-12T07:08:19.931Z,76.07
2018-01-12T07:10:48.082Z,73.33
2018-01-12T07:13:16.281Z,68.33
2018-01-12T07:15:44.524Z,70.63
2018-01-12T07:18:13.570Z,71.80
2018-01-12T07:20:53.644Z,87.23
2018-01-12T07:23:33.569Z,85.97
2018-01-12T07:26:02.259Z,92.93
2018-01-12T07:28:30.429Z,82.47
2018-01-12T07:30:58.577Z,90.40
2018-01-12T07:33:26.716Z,82.30
2018-01-12T07:35:54.856Z,79.63
2018-01-12T07:38:22.960Z,93.57
2018-01-12T07:40:51.091Z,72.87
2018-01-12T07:43:19.189Z,88.43
2018-01-12T07:45:47.334Z,79.03
2018-01-12T07:48:15.431Z,73.43
2018-01-12T07:53:21.825Z,76.20
2018-01-12T07:55:50.400Z,84.07
2018-01-12T07:58:18.519Z,83.67
2018-01-12T08:00:52.408Z,92.47
2018-01-12T08:03:20.538Z,99.43
2018-01-12T08:05:48.674Z,101.07
2018-01-12T08:08:17.569Z,97.83
2018-01-12T08:10:46.365Z,104.67
2018-01-12T08:13:14.502Z,103.70
2018-01-12T08:15:42.630Z,90.53
2018-01-12T08:18:10.923Z,94.30
2018-01-12T08:20:39.114Z,90.17
2018-01-12T08:23:07.236Z,103.30
2018-01-12T08:25:35.365Z,99.60
2018-01-12T08:28:04.059Z,98.03
2018-01-12T08:30:32.196Z,87.50
2018-01-12T08:33:01.063Z,86.50
2018-01-12T08:35:29.181Z,93.80
2018-01-12T08:37:57.297Z,94.47
2018-01-12T08:40:26.193Z,82.70
2018-01-12T08:42:54.293Z,76.03
2018-01-12T08:45:22.432Z,75.37
2018-01-12T08:47:51.292Z,69.83
2018-01-12T08:50:19.423Z,82.30
2018-01-12T08:52:47.545Z,72.28
2018-01-12T08:55:15.649Z,76.60
2018-01-12T08:57:43.784Z,68.83
2018-01-12T09:00:11.886Z,69.33
2018-01-12T09:02:42.746Z,68.53
2018-01-12T09:05:10.848Z,60.60
2018-01-12T09:07:38.985Z,61.40
2018-01-12T09:10:07.081Z,69.13
2018-01-12T09:12:35.209Z,61.53
2018-01-12T09:15:21.925Z,62.03
2018-01-12T09:17:50.816Z,60.63
2018-01-12T09:20:19.686Z,63.30
2018-01-12T09:22:47.821Z,61.07
2018-01-12T09:25:26.358Z,61.43
2018-01-12T09:27:54.481Z,63.93
2018-01-12T09:30:22.592Z,61.87
2018-01-12T09:32:52.258Z,66.30
2018-01-12T09:35:21.173Z,78.23
2018-01-12T09:38:01.488Z,72.63
2018-01-12T09:40:31.508Z,71.57
2018-01-12T09:42:59.644Z,77.37
2018-01-12T09:45:27.753Z,72.00
2018-01-12T09:48:07.813Z,67.17
2018-01-12T09:50:35.918Z,77.97
2018-01-12T09:53:04.057Z,73.40
2018-01-12T09:55:32.225Z,68.67
2018-01-12T09:58:00.317Z,68.23
2018-01-12T10:00:40.975Z,70.47
2018-01-12T10:03:09.101Z,65.67
2018-01-12T10:05:37.230Z,72.30
2018-01-12T10:08:05.469Z,68.27
2018-01-12T10:10:33.588Z,141.90
2018-01-12T10:13:02.495Z,100.60
2018-01-12T10:15:30.644Z,70.93
2018-01-12T10:17:58.828Z,66.77
2018-01-12T10:20:29.802Z,75.53
2018-01-12T10:22:57.955Z,74.60
2018-01-12T10:25:26.064Z,73.50
2018-01-12T10:27:54.199Z,69.83
2018-01-12T10:30:39.122Z,70.60
2018-01-12T10:33:08.162Z,69.33
2018-01-12T10:35:54.990Z,69.67
2018-01-12T10:38:23.162Z,71.83
2018-01-12T10:40:54.164Z,66.33
2018-01-12T10:43:23.074Z,65.37
2018-01-12T10:46:08.486Z,70.33
2018-01-12T10:48:46.514Z,69.50
2018-01-12T10:51:20.542Z,70.50
2018-01-12T10:53:48.679Z,70.27
2018-01-12T10:56:16.806Z,71.67
2018-01-12T10:58:45.773Z,63.30
2018-01-12T11:01:13.886Z,52.77
2018-01-12T11:03:42.039Z,56.20
2018-01-12T11:06:10.922Z,63.40
2018-01-12T11:08:39.069Z,68.73
2018-01-12T11:11:07.184Z,69.47
2018-01-12T11:13:36.104Z,72.83
2018-01-12T11:16:04.228Z,70.97
2018-01-12T11:18:32.370Z,67.03
2018-01-12T11:21:00.479Z,69.67
2018-01-12T11:23:28.616Z,68.03
2018-01-12T11:25:56.741Z,81.27
2018-01-12T11:28:25.923Z,62.83
2018-01-12T11:30:54.036Z,66.37
2018-01-12T11:33:22.178Z,69.40
2018-01-12T11:35:50.290Z,72.90
2018-01-12T11:38:18.418Z,71.30
2018-01-12T11:40:46.532Z,66.10
2018-01-12T11:43:14.662Z,65.83
2018-01-12T11:45:42.779Z,70.37
2018-01-12T11:48:10.910Z,74.23
2018-01-12T11:50:39.023Z,75.23
2018-01-12T11:53:07.171Z,74.27
2018-01-12T11:55:35.284Z,72.70
2018-01-12T11:58:03.699Z,74.03
2018-01-12T12:00:31.925Z,65.53
2018-01-12T12:03:00.057Z,75.63
2018-01-12T12:05:28.945Z,59.10
2018-01-12T12:07:57.044Z,68.37
2018-01-12T12:10:25.954Z,63.07
2018-01-12T12:12:54.055Z,56.30
2018-01-12T12:15:22.196Z,69.00
2018-01-12T12:17:50.303Z,73.17
2018-01-12T12:20:18.446Z,63.37
2018-01-12T12:22:46.547Z,61.23
2018-01-12T12:25:14.690Z,55.07
2018-01-12T12:27:42.804Z,63.47
2018-01-12T12:30:10.936Z,60.57
2018-01-12T12:32:39.056Z,54.00
2018-01-12T12:35:07.843Z,58.90
2018-01-12T12:37:36.065Z,57.83
2018-01-12T12:40:04.275Z,64.83
2018-01-12T12:42:32.380Z,68.67
2018-01-12T12:45:00.516Z,54.10
2018-01-12T12:47:28.760Z,56.57
2018-01-12T12:49:57.664Z,59.00
2018-01-12T12:52:25.785Z,60.00
2018-01-12T12:54:53.926Z,60.73
2018-01-12T12:57:22.044Z,57.20
2018-01-12T12:59:50.180Z,62.40
2018-01-12T13:02:18.303Z,64.63
2018-01-12T13:04:46.432Z,61.90
2018-01-12T13:07:14.550Z,60.07
2018-01-12T13:09:42.683Z,60.57
2018-01-12T13:12:10.803Z,59.77
2018-01-12T13:14:39.693Z,68.10
2018-01-12T13:17:08.568Z,65.30
2018-01-12T13:19:36.698Z,61.20
2018-01-12T13:22:04.808Z,63.17
2018-01-12T13:24:32.962Z,59.20
2018-01-12T13:27:01.080Z,58.17
2018-01-12T13:29:29.260Z,58.53
2018-01-12T13:31:58.141Z,58.97
2018-01-12T13:34:27.044Z,63.20
2018-01-12T13:36:55.931Z,64.67
2018-01-12T13:39:24.819Z,58.53
2018-01-12T13:41:53.708Z,56.07
2018-01-12T13:44:22.633Z,57.33
2018-01-12T13:46:50.747Z,56.37
2018-01-12T13:49:18.889Z,55.53
2018-01-12T13:51:47.010Z,55.80
2018-01-12T13:54:15.142Z,49.77
2018-01-12T13:56:43.252Z,51.03
2018-01-12T13:59:12.149Z,49.20
2018-01-12T14:01:41.030Z,49.33
2018-01-12T14:04:09.149Z,48.50
2018-01-12T14:06:37.257Z,51.27
2018-01-12T14:09:05.377Z,50.90
2018-01-12T14:11:33.498Z,47.23
2018-01-12T14:14:01.726Z,50.60
2018-01-12T14:16:30.832Z,52.07
2018-01-12T14:18:59.707Z,49.23
2018-01-12T14:21:28.591Z,49.53
2018-01-12T14:23:57.486Z,47.40
2018-01-12T14:26:26.369Z,48.03
2018-01-12T14:28:55.271Z,49.27
2018-01-12T14:31:24.146Z,51.50
2018-01-12T14:33:53.046Z,48.10
2018-01-12T14:36:21.917Z,55.70
2018-01-12T14:38:50.069Z,50.17
2018-01-12T14:41:18.188Z,55.23
2018-01-12T14:43:47.094Z,58.00
2018-01-12T14:46:15.883Z,45.47
2018-01-12T14:48:43.984Z,50.37
2018-01-12T14:51:12.133Z,51.60
2018-01-12T14:53:40.256Z,49.83
2018-01-12T14:56:08.388Z,53.03
2018-01-12T14:58:36.523Z,51.20
2018-01-12T15:01:05.460Z,56.20
2018-01-12T15:03:33.575Z,57.10
2018-01-12T15:06:02.046Z,48.83
2018-01-12T15:08:30.279Z,51.10
2018-01-12T15:10:58.418Z,49.43
2018-01-12T15:13:26.660Z,49.17
2018-01-12T15:15:54.868Z,51.00
2018-01-12T15:18:23.747Z,58.23
2018-01-12T15:20:51.883Z,53.27
2018-01-12T15:23:20.000Z,51.20
2018-01-12T15:25:48.124Z,49.27
2018-01-12T15:28:16.251Z,51.37
2018-01-12T15:30:45.302Z,49.60
2018-01-12T15:33:15.043Z,56.27
2018-01-12T15:35:43.271Z,51.63
2018-01-12T15:38:12.837Z,50.83
2018-01-12T15:40:41.937Z,54.43
2018-01-12T15:43:10.812Z,50.90
2018-01-12T15:45:39.018Z,43.37
2018-01-12T15:48:07.128Z,47.77
2018-01-12T15:50:35.507Z,54.43
2018-01-12T15:53:04.651Z,54.90
2018-01-12T15:55:32.998Z,59.50
2018-01-12T15:58:01.109Z,49.87
2018-01-12T16:00:29.346Z,56.30
2018-01-12T16:02:57.581Z,50.03
2018-01-12T16:05:25.714Z,52.20
2018-01-12T16:07:53.841Z,58.43
2018-01-12T16:10:21.998Z,56.17
2018-01-12T16:12:50.104Z,51.60
2018-01-12T16:15:18.232Z,60.27
2018-01-12T16:17:46.344Z,47.70
2018-01-12T16:20:14.484Z,62.13
2018-01-12T16:22:43.454Z,52.33
2018-01-12T16:25:12.353Z,54.07
2018-01-12T16:27:41.326Z,55.30
2018-01-12T16:30:09.490Z,49.70
2018-01-12T16:32:37.738Z,59.30
2018-01-12T16:35:05.842Z,60.80
2018-01-12T16:37:34.197Z,71.03
2018-01-12T16:40:02.372Z,67.80
2018-01-12T16:42:30.518Z,66.67
2018-01-12T16:44:59.171Z,61.60
2018-01-12T16:47:27.833Z,58.60
2018-01-12T16:49:57.103Z,61.37
2018-01-12T16:52:25.311Z,55.90
2018-01-12T16:54:53.498Z,63.70
2018-01-12T16:57:21.670Z,59.60
2018-01-12T16:59:49.793Z,58.43
2018-01-12T17:02:17.954Z,53.93
2018-01-12T17:04:46.181Z,57.17
2018-01-12T17:07:14.410Z,58.27
2018-01-12T17:09:42.572Z,57.93
2018-01-12T17:12:11.782Z,61.97
2018-01-12T17:14:39.933Z,63.33
2018-01-12T17:17:08.173Z,62.53
2018-01-12T17:19:37.094Z,62.67
2018-01-12T17:22:06.044Z,57.20
2018-01-12T17:24:34.141Z,62.00
2018-01-12T17:27:04.901Z,59.10
2018-01-12T17:29:33.764Z,58.83
2018-01-12T17:32:02.693Z,59.77
2018-01-12T17:34:30.911Z,68.83
2018-01-12T17:36:59.159Z,63.00
2018-01-12T17:39:27.286Z,63.43
2018-01-12T17:41:55.421Z,56.63
2018-01-12T17:44:23.529Z,58.20
2018-01-12T17:46:51.675Z,58.27
2018-01-12T17:49:19.802Z,66.37
2018-01-12T17:51:48.694Z,53.97
2018-01-12T17:54:17.706Z,61.70
2018-01-12T17:56:45.850Z,54.77
2018-01-12T17:59:14.766Z,61.90
2018-01-12T18:01:42.928Z,53.73
2018-01-12T18:04:11.810Z,61.17
2018-01-12T18:06:40.701Z,72.80
2018-01-12T18:09:09.673Z,56.63
2018-01-12T18:11:37.791Z,61.43
2018-01-12T18:14:05.912Z,62.73
2018-01-12T18:16:34.274Z,61.90
2018-01-12T18:19:02.775Z,71.53
2018-01-12T18:21:31.163Z,58.90
2018-01-12T18:23:59.265Z,56.83
2018-01-12T18:26:27.569Z,66.50
2018-01-12T18:28:55.841Z,63.40
2018-01-12T18:31:23.999Z,54.87
2018-01-12T18:33:52.334Z,54.40
2018-01-12T18:36:20.594Z,59.50
2018-01-12T18:38:48.726Z,65.40
2018-01-12T18:41:16.851Z,59.63
2018-01-12T18:43:44.965Z,64.10
2018-01-12T18:46:13.105Z,54.13
2018-01-12T18:48:41.224Z,59.30
2018-01-12T18:51:09.348Z,73.60
2018-01-12T18:53:37.476Z,61.40
2018-01-12T18:56:05.593Z,64.17
2018-01-12T18:58:33.709Z,55.87
2018-01-12T19:01:02.236Z,56.20
2018-01-12T19:03:30.546Z,68.20
2018-01-12T19:05:58.785Z,60.13
2018-01-12T19:08:27.574Z,65.97
2018-01-12T19:10:55.685Z,60.87
2018-01-12T19:13:23.849Z,64.43
2018-01-12T19:15:51.987Z,56.17
2018-01-12T19:18:20.096Z,64.93
2018-01-12T19:20:48.962Z,61.77
2018-01-12T19:23:17.129Z,64.57
2018-01-12T19:25:45.269Z,69.30
2018-01-12T19:28:13.414Z,70.53
2018-01-12T19:30:41.617Z,67.67
2018-01-12T19:33:09.746Z,80.00
2018-01-12T19:35:37.877Z,74.20
2018-01-12T19:38:06.001Z,59.37
2018-01-12T19:40:34.141Z,62.93
2018-01-12T19:43:02.242Z,64.23
2018-01-12T19:45:30.354Z,62.60
2018-01-12T19:47:59.248Z,63.47
2018-01-12T19:50:27.358Z,60.50
2018-01-12T19:52:55.484Z,76.87
2018-01-12T19:55:24.380Z,64.17
2018-01-12T19:57:53.284Z,75.37
2018-01-12T20:00:21.398Z,64.63
2018-01-12T20:02:49.534Z,74.07
2018-01-12T20:05:19.133Z,71.37
2018-01-12T20:07:47.287Z,74.00
2018-01-12T20:10:16.196Z,73.70
2018-01-12T20:12:44.559Z,79.47
2018-01-12T20:15:12.691Z,69.50
2018-01-12T20:17:41.054Z,70.97
2018-01-12T20:20:09.176Z,61.17
2018-01-12T20:22:37.347Z,78.60
2018-01-12T20:25:05.715Z,70.43
2018-01-12T20:27:33.868Z,60.10
2018-01-12T20:30:02.386Z,59.23
2018-01-12T20:32:30.651Z,77.37
2018-01-12T20:34:58.738Z,69.60
2018-01-12T20:37:26.884Z,71.13
2018-01-12T20:39:55.031Z,84.07
2018-01-12T20:42:23.174Z,72.40
2018-01-12T20:44:52.091Z,67.77
2018-01-12T20:47:20.245Z,66.10
2018-01-12T20:49:49.158Z,68.30
2018-01-12T20:52:17.342Z,75.03
2018-01-12T20:54:45.464Z,66.33
2018-01-12T20:57:13.651Z,68.27
2018-01-12T20:59:42.526Z,71.73
2018-01-12T21:02:10.755Z,61.00
2018-01-12T21:04:38.931Z,63.10
2018-01-12T21:07:07.843Z,64.77
2018-01-12T21:09:35.979Z,76.43
2018-01-12T21:12:04.543Z,74.80
2018-01-12T21:14:33.515Z,63.20
2018-01-12T21:17:03.095Z,71.00
2018-01-12T21:19:31.801Z,60.80
2018-01-12T21:21:59.945Z,60.27
2018-01-12T21:24:28.094Z,59.50
2018-01-12T21:26:57.001Z,64.10
2018-01-12T21:29:25.119Z,67.00
2018-01-12T21:31:53.283Z,59.23
2018-01-12T21:34:21.388Z,72.77
2018-01-12T21:36:50.287Z,60.80
2018-01-12T21:39:19.243Z,67.43
2018-01-12T21:41:47.736Z,65.37
2018-01-12T21:44:17.838Z,60.83
2018-01-12T21:46:45.969Z,60.17
2018-01-12T21:49:14.166Z,64.10
2018-01-12T21:51:42.286Z,65.17
2018-01-12T21:54:10.397Z,76.07
2018-01-12T21:56:38.525Z,70.13
2018-01-12T21:59:06.633Z,66.87
2018-01-12T22:01:34.795Z,63.23
2018-01-12T22:04:03.081Z,61.13
2018-01-12T22:06:31.243Z,61.73
2018-01-12T22:09:00.121Z,61.33
2018-01-12T22:11:28.262Z,59.77
2018-01-12T22:13:56.375Z,70.13
2018-01-12T22:16:25.285Z,56.50
2018-01-12T22:18:53.385Z,65.00
2018-01-12T22:21:21.542Z,70.60
2018-01-12T22:23:49.637Z,74.30
2018-01-12T22:26:17.745Z,69.83
2018-01-12T22:28:45.888Z,70.50
2018-01-12T22:31:14.004Z,79.67
2018-01-12T22:33:42.906Z,61.83
2018-01-12T22:36:11.774Z,75.70
2018-01-12T22:38:39.902Z,62.03
2018-01-12T22:41:08.020Z,68.33
2018-01-12T22:43:36.142Z,70.70
2018-01-12T22:46:04.241Z,69.43
2018-01-12T22:48:32.371Z,62.93
2018-01-12T22:51:00.479Z,69.57
2018-01-12T22:53:28.785Z,64.33
2018-01-12T22:55:56.889Z,65.63
2018-01-12T22:58:25.010Z,61.93
2018-01-12T23:00:53.117Z,59.90
2018-01-12T23:03:22.016Z,74.03
2018-01-12T23:05:50.882Z,68.63
2018-01-12T23:08:19.019Z,62.47
2018-01-12T23:10:47.134Z,68.50
2018-01-12T23:13:15.271Z,65.97
2018-01-12T23:15:43.371Z,67.47
2018-01-12T23:18:11.486Z,66.97
2018-01-12T23:20:40.356Z,63.17
2018-01-12T23:23:08.507Z,62.20
2018-01-12T23:25:36.613Z,69.83
2018-01-12T23:28:04.733Z,67.07
2018-01-12T23:30:32.854Z,72.43
2018-01-12T23:33:00.979Z,68.63
2018-01-12T23:35:29.082Z,72.20
2018-01-12T23:37:57.205Z,71.13
2018-01-12T23:40:26.102Z,82.33
2018-01-12T23:42:54.230Z,84.10
2018-01-12T23:45:22.354Z,80.80
2018-01-12T23:47:50.489Z,80.63
2018-01-12T23:50:18.597Z,77.67
2018-01-12T23:52:46.729Z,74.23
2018-01-12T23:55:14.825Z,75.47
2018-01-12T23:57:43.712Z,74.60
